Time;durP1;ratioP1;P1;durP2;ratioP2;P2;SDS_P1;SDS_P2;PMS_P1;PMS_P2;Temp;Humidity;BMP_temperature;BMP_pressure;BME280_temperature;BME280_humidity;BME280_pressure;Samples;Min_cycle;Max_cycle;Signal;HPM_P1;HPM_P2
2022/03/21 00:01:18;;;;;;;;;64.00;51.00;;;;;12.70;48.65;101912.47;6316237;22;45532;-80
2022/03/21 00:03:44;;;;;;;;;59.25;48.50;;;;;12.57;48.75;101900.63;6288318;22;45449;-80
2022/03/21 00:06:10;;;;;;;;;64.50;52.75;;;;;12.63;48.60;101905.19;6287268;22;45397;-81
2022/03/21 00:08:37;;;;;;;;;65.25;49.75;;;;;12.68;48.67;101894.63;6285724;22;45329;-82
2022/03/21 00:11:03;;;;;;;;;65.50;52.00;;;;;12.65;49.41;101908.81;6313075;22;45365;-81
2022/03/21 00:13:29;;;;;;;;;65.75;51.75;;;;;12.54;49.11;101897.88;6285844;22;45351;-81
2022/03/21 00:15:55;;;;;;;;;63.25;50.75;;;;;12.57;49.16;101911.28;6311542;22;45383;-80
2022/03/21 00:18:23;;;;;;;;;58.75;48.75;;;;;12.63;49.41;101915.00;6283684;22;45796;-81
2022/03/21 00:20:57;;;;;;;;;61.75;49.50;;;;;12.64;49.55;101911.44;6311451;22;45413;-80
2022/03/21 00:23:24;;;;;;;;;59.50;50.00;;;;;12.51;49.52;101905.81;6284514;22;45375;-81
2022/03/21 00:25:50;;;;;;;;;66.50;52.25;;;;;12.46;49.66;101902.09;6313576;22;45756;-81
2022/03/21 00:28:15;;;;;;;;;62.75;49.00;;;;;12.52;49.16;101904.94;6314854;22;45416;-81
2022/03/21 00:30:42;;;;;;;;;68.25;51.75;;;;;12.59;49.57;101914.91;6284145;22;47112;-80
2022/03/21 00:33:09;;;;;;;;;60.75;50.25;;;;;12.48;49.47;101899.47;6284181;22;45387;-81
2022/03/21 00:35:35;;;;;;;;;58.25;48.00;;;;;12.49;49.69;101911.97;6283662;22;45708;-82
2022/03/21 00:38:01;;;;;;;;;62.00;48.75;;;;;12.47;50.12;101908.38;6285526;22;45332;-81
2022/03/21 00:40:31;;;;;;;;;49.25;41.50;;;;;12.57;50.10;101911.28;6284681;22;47708;-81
2022/03/21 00:42:58;;;;;;;;;68.50;50.75;;;;;12.39;50.51;101894.81;6286243;22;45872;-81
2022/03/21 00:45:24;;;;;;;;;62.75;47.25;;;;;12.44;50.66;101911.84;6286078;22;45295;-81
2022/03/21 00:47:51;;;;;;;;;60.75;50.75;;;;;12.44;50.50;101911.84;6287123;22;45728;-81
2022/03/21 00:50:18;;;;;;;;;66.00;52.25;;;;;12.40;50.73;101902.88;6287301;22;46749;-82
2022/03/21 00:52:49;;;;;;;;;66.00;50.50;;;;;12.56;50.57;101913.91;6284077;22;45394;-82
2022/03/21 00:55:16;;;;;;;;;68.00;52.75;;;;;12.45;50.83;101902.97;6284875;22;45429;-80
2022/03/21 00:57:43;;;;;;;;;63.25;51.25;;;;;12.41;51.03;101898.44;6286136;22;45589;-80
2022/03/21 01:00:15;;;;;;;;;62.25;50.00;;;;;12.45;50.96;101900.31;6313997;22;45885;-80
2022/03/21 01:02:41;;;;;;;;;64.75;54.25;;;;;12.30;50.95;101890.16;6314235;22;45664;-81
2022/03/21 01:05:08;;;;;;;;;67.25;52.25;;;;;12.43;51.17;101901.16;6285674;22;45534;-81
2022/03/21 01:07:35;;;;;;;;;67.50;52.75;;;;;12.32;51.32;101898.19;6286020;22;45322;-81
2022/03/21 01:10:04;;;;;;;;;66.75;52.00;;;;;12.29;51.91;101898.13;6287835;22;47592;-80
2022/03/21 01:12:29;;;;;;;;;69.50;54.00;;;;;12.27;51.83;101910.53;6315105;22;45399;-81
2022/03/21 01:14:55;;;;;;;;;67.00;51.75;;;;;12.25;52.15;101901.56;6287854;22;45360;-80
2022/03/21 01:17:20;;;;;;;;;66.00;52.75;;;;;12.23;51.57;101913.97;6286702;22;45389;-81
2022/03/21 01:19:46;;;;;;;;;58.25;49.50;;;;;12.26;51.67;101911.38;6285806;22;47055;-81
2022/03/21 01:22:11;;;;;;;;;60.50;50.25;;;;;12.21;51.41;101901.47;6315183;22;45368;-80
2022/03/21 01:24:38;;;;;;;;;68.50;53.50;;;;;12.22;51.54;101899.75;6314340;22;45598;-79
2022/03/21 01:27:05;;;;;;;;;65.75;52.50;;;;;12.30;51.34;101903.50;6288546;22;45491;-81
2022/03/21 01:29:32;;;;;;;;;65.25;51.50;;;;;12.37;51.88;101904.56;6317156;22;45356;-81
2022/03/21 01:31:58;;;;;;;;;63.75;50.00;;;;;12.23;51.56;101901.53;6316980;22;45357;-80
2022/03/21 01:34:24;;;;;;;;;57.50;47.00;;;;;12.25;51.15;101909.59;6289818;22;45360;-80
2022/03/21 01:36:49;;;;;;;;;66.00;52.00;;;;;12.22;51.21;101902.41;6291204;22;45294;-81
2022/03/21 01:39:15;;;;;;;;;62.00;49.50;;;;;12.24;51.14;101899.75;6316774;22;45846;-80
2022/03/21 01:41:41;;;;;;;;;68.50;51.25;;;;;12.26;51.23;101917.63;6317847;22;45350;-80
2022/03/21 01:44:08;;;;;;;;;65.25;51.75;;;;;12.34;51.02;101904.47;6286044;22;45377;-81
2022/03/21 01:46:35;;;;;;;;;60.75;50.00;;;;;12.30;50.98;101905.25;6286777;22;45896;-80
2022/03/21 01:49:04;;;;;;;;;67.50;51.00;;;;;12.38;51.24;101907.28;6313815;22;45449;-81
2022/03/21 01:51:30;;;;;;;;;67.00;52.50;;;;;12.28;51.23;101897.22;6313691;22;45558;-82
2022/03/21 01:56:43;;;;;;;;;67.00;52.00;;;;;12.40;50.97;101912.63;6313701;22;45440;-81
2022/03/21 01:59:09;;;;;;;;;66.00;51.75;;;;;12.40;50.95;101908.22;6313891;22;45405;-81
2022/03/21 02:01:35;;;;;;;;;61.25;51.00;;;;;12.46;50.78;101910.09;6311478;22;45324;-80
2022/03/21 02:04:01;;;;;;;;;63.00;49.25;;;;;12.42;50.56;101900.22;6285725;22;45698;-81
2022/03/21 02:06:28;;;;;;;;;57.75;48.50;;;;;12.56;50.36;101921.91;6311189;22;45437;-81
2022/03/21 02:08:57;;;;;;;;;64.25;50.00;;;;;12.64;50.44;101922.13;6285051;22;46935;-81
2022/03/21 02:11:23;;;;;;;;;61.00;49.75;;;;;12.57;50.19;101916.63;6260664;22;45424;-81
2022/03/21 02:13:56;;;;;;;;;61.25;49.25;;;;;12.67;50.23;101914.19;6286246;22;45413;-81
2022/03/21 02:19:45;;;;;;;;;56.50;47.50;;;;;12.52;50.44;101912.03;6313694;22;45419;-82
2022/03/21 02:22:30;;;;;;;;;63.25;49.75;;;;;12.62;50.03;101908.72;6313938;22;45368;-81
2022/03/21 02:25:01;;;;;;;;;63.75;50.25;;;;;12.53;50.45;101904.06;6311755;22;45346;-81
2022/03/21 02:27:28;;;;;;;;;65.00;51.25;;;;;12.40;50.84;101899.28;6314571;22;45345;-81
2022/03/21 02:29:56;;;;;;;;;58.50;48.00;;;;;12.36;50.67;101886.72;6287149;22;46960;-81
2022/03/21 02:32:21;;;;;;;;;59.75;49.25;;;;;12.26;50.65;101896.28;6315703;22;45358;-80
2022/03/21 02:34:48;;;;;;;;;63.50;46.25;;;;;12.27;50.56;101897.19;6311709;22;45616;-82
2022/03/21 02:37:17;;;;;;;;;58.50;48.25;;;;;12.26;50.69;101892.69;6315005;22;45490;-82
2022/03/21 02:39:44;;;;;;;;;59.00;48.00;;;;;12.20;50.66;101896.13;6313606;22;46028;-82
2022/03/21 02:42:12;;;;;;;;;64.25;52.50;;;;;12.16;50.79;101886.25;6285197;22;44811;-81
2022/03/21 02:44:39;;;;;;;;;59.75;49.75;;;;;12.13;50.78;101895.06;6312298;22;45290;-82
2022/03/21 02:47:06;;;;;;;;;58.75;48.25;;;;;12.11;50.96;101888.78;6283919;22;45440;-81
2022/03/21 02:49:32;;;;;;;;;65.75;50.75;;;;;12.01;51.03;101886.72;6313954;22;45415;-81
2022/03/21 02:52:01;;;;;;;;;58.75;48.00;;;;;11.98;51.19;101887.56;6286407;22;45497;-80
2022/03/21 02:54:27;;;;;;;;;63.25;51.00;;;;;11.89;51.12;101887.31;6285151;22;45510;-81
2022/03/21 02:56:54;;;;;;;;;63.50;49.50;;;;;11.95;51.37;101894.56;6286905;22;45397;-81
2022/03/21 02:59:19;;;;;;;;;62.00;48.50;;;;;11.89;51.23;101897.06;6287665;22;47680;-81
2022/03/21 03:01:45;;;;;;;;;58.25;46.75;;;;;11.87;51.46;101896.09;6312818;22;45436;-80
2022/03/21 03:04:11;;;;;;;;;61.75;49.00;;;;;11.84;51.65;101898.69;6315535;22;45741;-82
2022/03/21 03:06:39;;;;;;;;;60.25;49.00;;;;;11.81;51.35;101895.09;6287121;22;45452;-82
2022/03/21 03:09:09;;;;;;;;;62.50;49.25;;;;;11.89;51.24;101889.97;6289966;22;48219;-79
2022/03/21 03:11:39;;;;;;;;;60.75;48.75;;;;;11.76;51.78;101894.03;6317761;22;45404;-80
2022/03/21 03:14:06;;;;;;;;;57.25;46.25;;;;;11.75;51.76;101888.66;6288639;22;45609;-80
2022/03/21 03:16:31;;;;;;;;;59.25;47.50;;;;;11.70;51.86;101893.88;6288462;22;45352;-80
2022/03/21 03:18:57;;;;;;;;;58.75;47.50;;;;;11.70;51.96;101895.63;6313741;22;48138;-80
2022/03/21 03:21:31;;;;;;;;;64.50;49.50;;;;;11.80;51.76;101893.25;6287225;22;45886;-80
2022/03/21 03:24:04;;;;;;;;;64.25;49.75;;;;;11.84;51.92;101893.34;6314354;22;45674;-81
2022/03/21 03:26:30;;;;;;;;;64.00;50.25;;;;;11.64;52.09;101900.78;6285746;22;45452;-80
2022/03/21 03:28:55;;;;;;;;;60.00;48.00;;;;;11.63;52.22;101897.19;6309570;22;47159;-81
2022/03/21 03:31:21;;;;;;;;;54.75;44.50;;;;;11.60;51.87;101895.38;6311151;22;45404;-81
2022/03/21 03:33:47;;;;;;;;;63.75;50.25;;;;;11.67;52.16;101895.53;6282292;22;45370;-81
2022/03/21 03:36:15;;;;;;;;;65.50;53.75;;;;;11.65;52.37;101908.81;6312286;22;45313;-81
2022/03/21 03:38:42;;;;;;;;;62.00;47.25;;;;;11.64;52.35;101909.69;6311768;22;45471;-80
2022/03/21 03:41:10;;;;;;;;;59.25;47.75;;;;;11.61;52.25;101902.50;6310639;22;45360;-81
2022/03/21 03:43:36;;;;;;;;;65.25;52.00;;;;;11.61;52.05;101909.56;6311064;22;45352;-81
2022/03/21 03:46:03;;;;;;;;;64.00;51.75;;;;;11.66;52.33;101897.31;6311221;22;45702;-81
2022/03/21 03:48:29;;;;;;;;;62.50;50.50;;;;;11.60;52.27;101902.47;6283060;22;48337;-82
2022/03/21 03:50:56;;;;;;;;;62.00;48.00;;;;;11.63;52.51;101902.53;6310131;22;45347;-81
2022/03/21 03:53:21;;;;;;;;;62.50;49.75;;;;;11.66;52.56;101915.06;6312305;22;45732;-81
2022/03/21 03:55:47;;;;;;;;;61.00;48.75;;;;;11.69;52.21;101920.47;6312293;22;45388;-80
2022/03/21 03:58:13;;;;;;;;;63.75;50.00;;;;;11.74;52.14;101927.75;6285046;22;48059;-81
2022/03/21 04:00:38;;;;;;;;;64.25;49.25;;;;;11.70;52.23;101923.19;6283644;22;45478;-81
2022/03/21 04:05:49;;;;;;;;;59.25;47.25;;;;;11.77;52.31;101919.81;6313339;22;45392;-81
2022/03/21 04:08:14;;;;;;;;;63.50;50.25;;;;;11.76;52.35;101915.34;6284159;22;48470;-81
2022/03/21 04:10:41;;;;;;;;;60.00;47.25;;;;;11.93;52.34;101925.63;6311589;22;45428;-81
2022/03/21 04:13:07;;;;;;;;;60.50;49.25;;;;;11.77;52.53;101926.91;6313810;22;45527;-81
2022/03/21 04:15:33;;;;;;;;;60.75;48.00;;;;;11.78;52.60;101923.41;6285225;22;45483;-81
2022/03/21 04:18:04;;;;;;;;;59.25;48.25;;;;;11.95;52.30;101914.13;6312979;22;45515;-82
2022/03/21 04:20:31;;;;;;;;;64.00;51.50;;;;;11.88;52.30;101921.91;6285130;22;45697;-81
2022/03/21 04:23:43;;;;;;;;;59.50;48.75;;;;;12.12;51.89;101930.59;6284561;22;45634;-80
2022/03/21 04:26:10;;;;;;;;;64.25;50.00;;;;;11.92;52.31;101930.06;6314438;22;45429;-83
2022/03/21 04:28:35;;;;;;;;;60.00;48.00;;;;;11.92;52.38;101931.81;6261990;22;47682;-81
2022/03/21 04:31:01;;;;;;;;;57.25;45.00;;;;;11.97;52.24;101940.84;6285979;22;45760;-80
2022/03/21 04:33:32;;;;;;;;;63.25;50.00;;;;;11.92;51.95;101926.50;6312584;22;45396;-81
2022/03/21 04:35:58;;;;;;;;;60.75;47.25;;;;;11.96;52.06;101936.38;6284728;22;45672;-80
2022/03/21 04:38:24;;;;;;;;;57.75;46.25;;;;;11.91;52.00;101932.66;6285015;22;46917;-82
2022/03/21 04:40:50;;;;;;;;;61.50;50.75;;;;;11.98;51.54;101940.00;6314237;22;45379;-82
2022/03/21 04:43:18;;;;;;;;;59.25;48.50;;;;;11.87;51.87;101923.63;6285073;22;45412;-82
2022/03/21 04:45:47;;;;;;;;;61.75;49.50;;;;;12.01;51.86;101940.94;6313163;22;45522;-82
2022/03/21 04:48:12;;;;;;;;;61.00;47.75;;;;;11.91;52.46;101940.66;6312880;22;45471;-83
2022/03/21 04:50:38;;;;;;;;;60.00;47.50;;;;;11.99;52.20;101947.09;6314535;22;45371;-82
2022/03/21 04:53:05;;;;;;;;;60.25;50.00;;;;;12.02;51.81;101944.53;6287032;22;45347;-83
2022/03/21 04:55:32;;;;;;;;;63.25;48.50;;;;;11.96;52.26;101950.59;6286983;22;45573;-81
2022/03/21 04:57:58;;;;;;;;;56.75;46.75;;;;;11.97;52.17;101951.50;6314269;22;45702;-82
2022/03/21 05:00:23;;;;;;;;;59.75;47.50;;;;;11.98;52.40;101955.97;6287415;22;45402;-83
2022/03/21 05:02:49;;;;;;;;;55.75;45.50;;;;;12.02;52.45;101952.53;6287641;22;45446;-81
2022/03/21 05:05:14;;;;;;;;;59.50;48.50;;;;;11.98;52.83;101955.97;6262057;22;45555;-80
2022/03/21 05:07:54;;;;;;;;;61.00;48.00;;;;;11.99;52.57;101942.66;6313833;22;45427;-80
2022/03/21 05:10:23;;;;;;;;;68.25;52.75;;;;;12.03;52.72;101953.44;6287688;22;45403;-81
2022/03/21 05:12:50;;;;;;;;;58.75;49.25;;;;;11.99;52.43;101947.09;6288322;22;45499;-83
2022/03/21 05:15:18;;;;;;;;;62.50;50.50;;;;;12.06;52.84;101951.75;6314873;22;44942;-81
2022/03/21 05:17:44;;;;;;;;;58.25;47.50;;;;;11.95;52.71;101955.88;6315452;22;45373;-81
2022/03/21 05:20:12;;;;;;;;;64.00;48.50;;;;;12.06;53.09;101954.44;6287634;22;45247;-82
2022/03/21 05:22:38;;;;;;;;;56.50;45.75;;;;;12.04;52.57;101950.81;6315541;22;45352;-82
2022/03/21 05:36:01;;;;;;;;;57.75;48.00;;;;;12.13;52.73;101969.72;6314370;22;45397;-81
2022/03/21 05:38:29;;;;;;;;;63.25;48.00;;;;;12.28;52.54;101971.00;6313082;22;46437;-82
2022/03/21 05:40:58;;;;;;;;;61.00;49.00;;;;;12.29;52.65;101970.16;6284491;22;45896;-81
2022/03/21 05:43:24;;;;;;;;;62.25;50.25;;;;;12.25;52.65;101973.59;6286423;22;45213;-81
2022/03/21 05:45:52;;;;;;;;;59.75;46.25;;;;;12.37;52.67;101968.59;6285363;22;45575;-82
2022/03/21 05:51:02;;;;;;;;;63.25;48.75;;;;;12.33;52.34;101964.03;6316099;22;45717;-80
2022/03/21 05:53:27;;;;;;;;;60.50;48.25;;;;;12.37;52.27;101977.47;6286318;22;45290;-81
2022/03/21 05:55:55;;;;;;;;;57.75;47.75;;;;;12.40;52.29;101981.97;6287452;22;45396;-82
2022/03/21 05:58:21;;;;;;;;;57.75;45.25;;;;;12.41;52.36;101979.38;6315401;22;44924;-80
2022/03/21 06:00:46;;;;;;;;;58.75;47.50;;;;;12.40;52.30;101984.66;6283832;22;44843;-80
2022/03/21 06:03:12;;;;;;;;;61.25;48.75;;;;;12.45;52.39;101991.03;6283628;22;45757;-82
2022/03/21 06:05:37;;;;;;;;;55.75;46.25;;;;;12.46;52.19;101987.47;6286227;22;45388;-80
2022/03/21 06:08:03;;;;;;;;;62.75;49.00;;;;;12.41;52.18;101983.81;6313360;22;45474;-81
2022/03/21 06:10:29;;;;;;;;;65.00;50.00;;;;;12.35;52.04;101983.66;6313669;22;45341;-80
2022/03/21 06:12:55;;;;;;;;;60.75;49.50;;;;;12.32;52.21;101994.22;6287285;22;45692;-82
2022/03/21 06:15:21;;;;;;;;;61.00;48.00;;;;;12.33;52.31;102001.38;6287485;22;45671;-81
2022/03/21 06:17:46;;;;;;;;;61.50;49.25;;;;;12.28;52.61;101992.34;6287388;22;48061;-81
2022/03/21 06:20:14;;;;;;;;;58.75;48.00;;;;;12.40;52.70;101998.91;6286677;22;45512;-81
2022/03/21 06:26:02;;;;;;;;;59.75;48.75;;;;;12.33;52.82;102012.03;6314720;22;45393;-81
2022/03/21 06:28:29;;;;;;;;;63.75;49.25;;;;;12.35;52.75;102016.56;6315031;22;45331;-80
2022/03/21 06:30:57;;;;;;;;;63.50;51.50;;;;;12.46;52.65;102022.16;6315653;22;44681;-80
2022/03/21 06:33:26;;;;;;;;;60.50;47.75;;;;;12.47;52.66;102024.00;6315182;22;45371;-82
2022/03/21 06:35:52;;;;;;;;;64.50;52.25;;;;;12.39;52.77;102022.88;6287663;22;45552;-82
2022/03/21 06:38:18;;;;;;;;;64.50;51.50;;;;;12.38;52.91;102031.72;6314640;22;45397;-80
2022/03/21 06:40:43;;;;;;;;;61.25;50.75;;;;;12.39;52.58;102028.22;6286568;22;45478;-80
2022/03/21 06:43:15;;;;;;;;;64.75;50.00;;;;;12.60;52.56;102039.47;6286294;22;45446;-80
2022/03/21 06:45:41;;;;;;;;;66.00;52.50;;;;;12.54;52.52;102038.41;6315955;22;45457;-81
2022/03/21 06:48:06;;;;;;;;;66.75;52.50;;;;;12.53;52.42;102042.84;6316584;22;46093;-81
2022/03/21 06:50:32;;;;;;;;;63.50;50.25;;;;;12.50;52.54;102037.44;6289598;22;44867;-81
2022/03/21 06:52:57;;;;;;;;;66.75;52.25;;;;;12.58;52.47;102043.88;6291214;22;44862;-82
2022/03/21 06:55:25;;;;;;;;;66.50;51.25;;;;;12.75;53.00;102046.09;6316727;22;45249;-81
2022/03/21 06:57:50;;;;;;;;;63.25;50.50;;;;;12.67;52.83;102045.88;6288077;22;46517;-82
2022/03/21 07:00:17;;;;;;;;;64.50;52.25;;;;;12.76;53.31;102053.22;6315494;22;45437;-83
2022/03/21 07:02:44;;;;;;;;;65.00;52.00;;;;;12.84;53.48;102059.66;6288717;22;45364;-81
2022/03/21 07:05:10;;;;;;;;;62.50;48.00;;;;;12.81;53.03;102048.91;6315913;22;45349;-82
2022/03/21 07:07:37;;;;;;;;;69.25;54.50;;;;;12.99;53.93;102052.03;6287268;22;47000;-82
2022/03/21 07:10:07;;;;;;;;;63.75;52.75;;;;;13.04;53.99;102061.94;6288297;22;45283;-81
2022/03/21 07:12:35;;;;;;;;;67.00;54.00;;;;;13.05;54.38;102055.72;6290980;22;45479;-82
2022/03/21 07:15:02;;;;;;;;;66.25;53.75;;;;;13.06;55.65;102066.44;6288255;22;45683;-82
2022/03/21 07:17:27;;;;;;;;;70.50;52.75;;;;;13.03;55.80;102071.72;6314996;22;45357;-83
2022/03/21 07:20:43;;;;;;;;;68.00;53.75;;;;;13.24;55.64;102066.00;6314500;22;45337;-83
2022/03/21 07:23:08;;;;;;;;;61.75;49.50;;;;;13.15;55.53;102063.13;6287826;22;45579;-83
2022/03/21 07:25:34;;;;;;;;;69.00;51.25;;;;;13.24;55.92;102066.00;6286451;22;45313;-83
2022/03/21 07:27:59;;;;;;;;;65.75;52.00;;;;;13.26;56.20;102061.59;6286422;22;47610;-81
2022/03/21 07:30:26;;;;;;;;;66.00;54.00;;;;;13.25;55.56;102050.88;6314872;22;45531;-82
2022/03/21 07:32:53;;;;;;;;;66.00;52.50;;;;;13.44;55.82;102062.94;6288340;22;45389;-81
2022/03/21 07:35:19;;;;;;;;;67.75;51.75;;;;;13.35;56.33;102060.94;6288040;22;45329;-82
2022/03/21 07:37:47;;;;;;;;;64.50;52.00;;;;;13.42;55.57;102060.22;6315434;22;46000;-82
2022/03/21 07:40:14;;;;;;;;;64.50;51.00;;;;;13.47;55.59;102073.69;6287102;22;45353;-81
2022/03/21 07:42:41;;;;;;;;;65.75;49.50;;;;;13.54;55.95;102070.31;6286291;22;45321;-82
2022/03/21 07:48:28;;;;;;;;;59.50;48.75;;;;;13.75;54.85;102076.13;6314923;22;45485;-83
2022/03/21 07:50:55;;;;;;;;;58.75;48.25;;;;;13.76;55.05;102056.56;6289696;22;45572;-83
2022/03/21 07:53:21;;;;;;;;;55.25;45.75;;;;;13.83;54.90;102067.38;6290560;22;45399;-82
2022/03/21 07:55:47;;;;;;;;;64.50;51.50;;;;;13.94;54.99;102073.88;6316608;22;45324;-85
2022/03/21 07:58:12;;;;;;;;;63.50;50.50;;;;;14.03;54.45;102082.09;6290319;22;46682;-83
2022/03/21 08:00:38;;;;;;;;;60.00;49.25;;;;;14.09;54.67;102082.22;6315308;22;45389;-81
2022/03/21 08:03:03;;;;;;;;;61.50;45.75;;;;;14.11;54.55;102077.78;6289628;22;45623;-83
2022/03/21 08:05:29;;;;;;;;;63.00;49.00;;;;;13.91;54.27;102033.69;6291035;22;45499;-86
2022/03/21 08:07:56;;;;;;;;;65.25;52.25;;;;;14.27;54.37;102081.69;6317849;22;48630;-85
2022/03/21 08:10:24;;;;;;;;;57.75;46.75;;;;;14.12;53.76;102050.19;6319472;22;44749;-84
2022/03/21 08:12:49;;;;;;;;;64.25;50.75;;;;;14.35;53.98;102089.88;6291644;22;45438;-85
2022/03/21 08:15:17;;;;;;;;;58.25;48.25;;;;;14.25;53.93;102045.97;6321657;22;45455;-85
2022/03/21 08:17:50;;;;;;;;;63.00;50.25;;;;;14.80;53.52;102059.53;6320354;22;45449;-84
2022/03/21 08:20:21;;;;;;;;;59.50;47.50;;;;;15.03;52.71;102069.72;6292081;22;45837;-83
2022/03/21 08:22:50;;;;;;;;;60.75;48.00;;;;;15.22;52.83;102065.59;6320843;22;45250;-84
2022/03/21 08:25:17;;;;;;;;;59.25;49.00;;;;;15.37;52.10;102056.03;6295203;22;45698;-83
2022/03/21 08:27:44;;;;;;;;;53.50;45.00;;;;;15.49;51.53;102049.94;6296926;22;46886;-84
2022/03/21 08:30:19;;;;;;;;;61.25;47.50;;;;;15.82;51.21;102069.22;6295913;22;44974;-84
2022/03/21 08:32:54;;;;;;;;;57.50;45.50;;;;;15.82;50.49;102054.03;6293857;22;45628;-87
2022/03/21 08:35:21;;;;;;;;;62.75;49.75;;;;;15.83;50.94;102079.94;6292658;22;44831;-84
2022/03/21 08:37:47;;;;;;;;;54.25;45.25;;;;;15.73;50.24;102054.78;6291308;22;45511;-83
2022/03/21 08:40:14;;;;;;;;;59.50;46.75;;;;;15.61;50.26;102022.38;6292177;22;44669;-84
2022/03/21 08:42:40;;;;;;;;;60.00;49.00;;;;;15.64;50.25;102054.63;6292048;22;45409;-83
2022/03/21 08:45:07;;;;;;;;;54.50;45.00;;;;;15.71;50.71;102064.53;6292409;22;45140;-82
2022/03/21 08:47:34;;;;;;;;;57.33;44.00;;;;;15.77;50.48;102075.44;6291248;22;46623;-82
2022/03/21 08:50:00;;;;;;;;;57.50;45.00;;;;;15.85;50.19;102064.78;6292467;22;45374;-83
2022/03/21 08:52:26;;;;;;;;;54.00;40.67;;;;;16.04;49.99;102057.88;6319583;22;44736;-82
2022/03/21 08:54:52;;;;;;;;;52.00;43.33;;;;;16.08;49.39;102032.88;6292825;22;45390;-82
2022/03/21 08:57:17;;;;;;;;;52.00;42.00;;;;;16.32;48.76;102060.88;6291390;22;45412;-81
2022/03/21 08:59:47;;;;;;;;;56.50;44.50;;;;;16.43;48.23;102067.28;6291577;22;45237;-82
2022/03/21 09:02:13;;;;;;;;;55.00;43.75;;;;;16.45;48.54;102065.50;6294363;22;45380;-83
2022/03/21 09:08:01;;;;;;;;;52.33;40.67;;;;;16.65;47.56;102076.47;6319900;22;45769;-82
2022/03/21 09:10:27;;;;;;;;;47.67;41.67;;;;;16.51;47.23;102041.41;6319185;22;45325;-82
2022/03/21 09:12:53;;;;;;;;;52.33;44.00;;;;;16.81;47.63;102061.44;6291376;22;44810;-84
2022/03/21 09:15:25;;;;;;;;;47.00;39.00;;;;;16.76;47.34;102023.75;6293791;22;44908;-84
2022/03/21 09:17:53;;;;;;;;;40.33;35.67;;;;;17.22;46.79;102052.81;6318875;22;45310;-84
2022/03/21 09:20:20;;;;;;;;;46.33;38.00;;;;;17.32;47.30;102043.94;6320499;22;44824;-83
2022/03/21 09:22:48;;;;;;;;;44.00;37.67;;;;;17.54;45.15;102065.59;6321690;22;45334;-84
2022/03/21 09:25:20;;;;;;;;;44.33;38.67;;;;;17.44;45.82;102043.13;6326156;22;45334;-83
2022/03/21 09:27:46;;;;;;;;;37.67;33.67;;;;;17.34;46.12;102060.97;6299046;22;47109;-83
2022/03/21 09:30:13;;;;;;;;;40.67;35.00;;;;;17.29;45.66;102064.50;6297963;22;45365;-81
2022/03/21 09:32:44;;;;;;;;;34.33;32.33;;;;;17.28;45.44;102057.34;6293675;22;45481;-83
2022/03/21 09:35:21;;;;;;;;;32.00;28.33;;;;;17.20;45.59;102051.91;6317981;22;45321;-82
2022/03/21 09:38:44;;;;;;;;;40.33;32.33;;;;;17.24;45.25;102055.53;6296190;22;45366;-82
2022/03/21 09:41:13;;;;;;;;;37.00;32.00;;;;;17.15;46.48;102051.00;6291400;22;45485;-83
2022/03/21 09:43:40;;;;;;;;;29.67;26.67;;;;;16.86;45.93;102010.44;6318949;22;45227;-83
2022/03/21 09:46:07;;;;;;;;;24.67;22.67;;;;;17.20;45.45;102054.59;6292359;22;45544;-83
2022/03/21 09:48:34;;;;;;;;;29.67;26.33;;;;;17.03;45.37;102030.28;6323954;22;45697;-84
2022/03/21 09:51:05;;;;;;;;;25.33;23.67;;;;;16.99;45.36;102012.34;6302981;22;44813;-82
2022/03/21 09:53:31;;;;;;;;;24.00;22.67;;;;;17.24;45.41;102056.44;6328513;22;45230;-83
2022/03/21 09:56:01;;;;;;;;;28.00;26.33;;;;;17.19;45.21;102047.44;6302746;22;45368;-83
2022/03/21 09:58:35;;;;;;;;;24.00;23.00;;;;;17.33;45.76;102037.69;6302818;22;45638;-83
2022/03/21 10:01:01;;;;;;;;;25.33;25.33;;;;;17.34;45.63;102035.88;6326380;22;45279;-82
2022/03/21 10:03:35;;;;;;;;;28.33;24.67;;;;;17.61;45.76;102024.38;6325449;22;45313;-80
2022/03/21 10:06:01;;;;;;;;;32.00;24.00;;;;;17.52;45.29;102024.34;6324457;22;44747;-81
2022/03/21 10:08:28;;;;;;;;;35.33;32.00;;;;;17.66;44.29;102048.66;6317281;22;45728;-82
2022/03/21 10:11:05;;;;;;;;;31.00;29.67;;;;;17.66;44.75;102041.47;6289928;22;45341;-83
2022/03/21 10:13:32;;;;;;;;;36.00;31.67;;;;;17.69;44.60;102043.25;6287102;22;45395;-83
2022/03/21 10:16:13;;;;;;;;;23.33;22.67;;;;;17.70;44.09;102035.22;6289320;22;45693;-83
2022/03/21 10:18:56;;;;;;;;;23.00;20.33;;;;;17.67;44.46;102029.78;6318747;22;46555;-84
2022/03/21 10:21:31;;;;;;;;;25.67;24.00;;;;;17.74;43.75;102039.72;6286297;22;45659;-82
2022/03/21 10:24:07;;;;;;;;;21.67;21.33;;;;;17.67;44.10;102031.59;6287173;22;44807;-81
2022/03/21 10:26:41;;;;;;;;;31.00;23.67;;;;;17.55;43.75;102009.13;6287721;22;45369;-82
2022/03/21 10:29:10;;;;;;;;;29.00;22.00;;;;;17.71;43.82;102034.31;6315779;22;46250;-82
2022/03/21 10:31:46;;;;;;;;;21.00;18.33;;;;;17.84;43.73;102042.50;6290023;22;45615;-82
2022/03/21 10:34:16;;;;;;;;;22.67;21.67;;;;;17.70;43.76;102012.78;6318834;22;45491;-82
2022/03/21 10:37:12;;;;;;;;;20.33;17.33;;;;;17.93;43.56;102035.34;6293378;22;45310;-82
2022/03/21 10:39:39;;;;;;;;;22.00;22.00;;;;;17.71;42.99;102006.50;6293152;22;45121;-82
2022/03/21 10:42:56;;;;;;;;;15.33;15.00;;;;;17.96;43.30;102032.69;6293773;22;45438;-83
2022/03/21 10:45:24;;;;;;;;;22.33;18.67;;;;;17.93;43.69;102032.66;6263382;22;45008;-82
2022/03/21 10:47:56;;;;;;;;;17.33;17.33;;;;;18.06;43.19;102035.41;6291932;22;45259;-83
2022/03/21 10:50:30;;;;;;;;;15.67;13.00;;;;;17.89;43.47;101993.16;6320471;22;45459;-83
2022/03/21 10:53:04;;;;;;;;;25.67;20.67;;;;;17.92;42.56;101989.59;6290385;22;45670;-81
2022/03/21 10:55:35;;;;;;;;;17.67;17.67;;;;;18.03;43.36;102032.69;6292427;22;45421;-82
2022/03/21 10:58:01;;;;;;;;;15.00;14.67;;;;;18.01;42.63;102029.09;6292018;22;44759;-82
2022/03/21 11:00:27;;;;;;;;;16.67;13.33;;;;;17.91;42.59;102006.63;6265144;22;45774;-82
2022/03/21 11:03:45;;;;;;;;;16.33;15.00;;;;;18.22;42.44;102020.19;6288794;22;44774;-80
2022/03/21 11:06:14;;;;;;;;;13.33;12.33;;;;;18.18;42.73;102017.50;6297023;22;45779;-85
2022/03/21 11:08:41;;;;;;;;;14.33;13.33;;;;;18.11;43.04;101986.06;6292598;22;45227;-82
2022/03/21 11:11:09;;;;;;;;;9.00;9.00;;;;;18.33;42.63;102004.97;6290130;22;46882;-83
2022/03/21 11:13:37;;;;;;;;;19.00;19.00;;;;;18.39;42.61;102010.38;6290947;22;45756;-82
2022/03/21 11:16:19;;;;;;;;;19.00;17.00;;;;;18.42;41.54;102004.06;6295472;22;45317;-82
2022/03/21 11:18:51;;;;;;;;;21.00;19.00;;;;;18.35;42.22;102006.75;6293296;22;45543;-81
2022/03/21 11:21:24;;;;;;;;;20.67;18.33;;;;;18.27;42.41;101986.09;6293313;22;46787;-84
2022/03/21 11:23:51;;;;;;;;;18.33;18.33;;;;;18.24;42.46;101988.78;6289180;22;45438;-83
2022/03/21 11:26:43;;;;;;;;;16.33;15.33;;;;;18.52;42.75;101996.03;6288702;22;45407;-84
2022/03/21 11:30:03;;;;;;;;;22.67;17.00;;;;;18.66;41.06;101990.63;6291572;22;45455;-84
2022/03/21 11:32:41;;;;;;;;;16.00;16.00;;;;;18.55;40.94;101977.16;6169610;23;47772;-82
2022/03/21 11:35:13;;;;;;;;;22.00;17.67;;;;;18.64;41.69;101981.66;6274395;22;46369;-81
2022/03/21 11:37:40;;;;;;;;;17.33;16.33;;;;;18.61;41.71;101988.84;6288709;22;44973;-81
2022/03/21 11:40:27;;;;;;;;;14.67;14.33;;;;;18.79;41.06;101987.09;6290206;22;45678;-81
2022/03/21 11:46:29;;;;;;;;;16.00;14.33;;;;;18.54;41.01;101934.97;6317233;22;45411;-81
2022/03/21 11:49:01;;;;;;;;;13.00;11.67;;;;;18.69;41.31;101970.91;6315116;22;45718;-82
2022/03/21 11:51:38;;;;;;;;;16.00;15.00;;;;;18.80;40.46;101979.88;6313913;22;45635;-83
2022/03/21 11:54:07;;;;;;;;;16.00;15.00;;;;;18.75;41.32;101971.78;6290057;22;47296;-83